Time;durP1;ratioP1;P1;durP2;ratioP2;P2;SDS_P1;SDS_P2;PMS_P1;PMS_P2;Temp;Humidity;BMP_temperature;BMP_pressure;BME280_temperature;BME280_humidity;BME280_pressure;Samples;Min_cycle;Max_cycle;Signal;HPM_P1;HPM_P2
2022/12/30 00:00:00;;;;;;;1.5;1.5;;;;;;;5.7;100.0;100760;;;;
2022/12/30 00:01:03;;;;;;;1.5;1.5;;;;;;;5.7;100.0;100760;;;;
2022/12/30 00:02:00;;;;;;;1.5;1.5;;;;;;;5.8;100.0;100760;;;;
2022/12/30 00:03:00;;;;;;;1.5;1.5;;;;;;;5.8;100.0;100760;;;;
2022/12/30 00:04:00;;;;;;;1.5;1.5;;;;;;;5.8;100.0;100760;;;;
2022/12/30 00:05:00;;;;;;;1.5;1.5;;;;;;;5.8;100.0;100760;;;;
2022/12/30 00:06:00;;;;;;;1.5;1.5;;;;;;;5.7;100.0;100760;;;;
2022/12/30 00:07:00;;;;;;;1.5;1.5;;;;;;;5.7;100.0;100760;;;;
2022/12/30 00:08:00;;;;;;;1.5;1.5;;;;;;;5.7;100.0;100760;;;;
2022/12/30 00:09:00;;;;;;;1.5;1.5;;;;;;;5.7;100.0;100760;;;;
2022/12/30 00:10:01;;;;;;;1.8;1.8;;;;;;;5.8;100.0;100760;;;;
2022/12/30 00:11:00;;;;;;;1.8;1.8;;;;;;;5.8;100.0;100760;;;;
2022/12/30 00:33:06;;;;;;;1.8;1.8;;;;;;;5.7;100.0;100770;;;;
2022/12/30 00:33:09;;;;;;;1.5;1.5;;;;;;;5.6;100.0;100780;;;;
2022/12/30 00:34:04;;;;;;;1.5;1.5;;;;;;;5.6;100.0;100770;;;;
2022/12/30 00:35:01;;;;;;;1.5;1.5;;;;;;;5.6;100.0;100770;;;;
2022/12/30 00:36:00;;;;;;;1.5;1.5;;;;;;;5.7;100.0;100780;;;;
2022/12/30 00:37:00;;;;;;;1.5;1.5;;;;;;;5.7;100.0;100780;;;;
2022/12/30 00:38:00;;;;;;;1.5;1.5;;;;;;;5.6;100.0;100780;;;;
2022/12/30 00:39:00;;;;;;;1.5;1.5;;;;;;;5.6;100.0;100780;;;;
2022/12/30 00:40:00;;;;;;;1.5;1.5;;;;;;;5.6;100.0;100780;;;;
2022/12/30 00:44:00;;;;;;;1.5;1.5;;;;;;;5.6;100.0;100780;;;;
2022/12/30 00:45:00;;;;;;;1.5;1.5;;;;;;;5.6;100.0;100780;;;;
2022/12/30 00:46:00;;;;;;;1.5;1.5;;;;;;;5.6;100.0;100780;;;;
2022/12/30 00:47:00;;;;;;;1.5;1.5;;;;;;;5.6;100.0;100780;;;;
2022/12/30 00:48:00;;;;;;;1.5;1.5;;;;;;;5.6;100.0;100780;;;;
2022/12/30 00:57:00;;;;;;;1.5;1.5;;;;;;;5.5;100.0;100790;;;;
2022/12/30 00:58:00;;;;;;;1.5;1.5;;;;;;;5.6;100.0;100800;;;;
2022/12/30 00:59:00;;;;;;;1.5;1.5;;;;;;;5.6;100.0;100800;;;;
2022/12/30 01:00:00;;;;;;;1.5;1.5;;;;;;;5.6;100.0;100800;;;;
2022/12/30 01:01:00;;;;;;;1.5;1.5;;;;;;;5.6;100.0;100800;;;;
2022/12/30 01:02:00;;;;;;;1.5;1.5;;;;;;;5.6;100.0;100790;;;;
2022/12/30 01:03:00;;;;;;;1.5;1.5;;;;;;;5.6;100.0;100790;;;;
2022/12/30 01:04:00;;;;;;;1.5;1.5;;;;;;;5.5;100.0;100800;;;;
2022/12/30 01:05:00;;;;;;;1.5;1.5;;;;;;;5.5;100.0;100800;;;;
2022/12/30 01:06:08;;;;;;;1.5;1.5;;;;;;;5.5;100.0;100800;;;;
2022/12/30 01:07:00;;;;;;;1.5;1.5;;;;;;;5.5;100.0;100800;;;;
2022/12/30 01:08:00;;;;;;;1.5;1.5;;;;;;;5.5;100.0;100800;;;;
2022/12/30 01:09:00;;;;;;;1.5;1.5;;;;;;;5.5;100.0;100800;;;;
2022/12/30 01:10:00;;;;;;;1.6;1.6;;;;;;;5.5;100.0;100800;;;;
2022/12/30 01:11:04;;;;;;;1.6;1.6;;;;;;;5.5;100.0;100800;;;;
2022/12/30 01:12:07;;;;;;;1.6;1.6;;;;;;;5.5;100.0;100810;;;;
2022/12/30 01:13:00;;;;;;;1.6;1.6;;;;;;;5.5;100.0;100810;;;;
2022/12/30 01:14:00;;;;;;;1.6;1.6;;;;;;;5.5;100.0;100810;;;;
2022/12/30 01:15:00;;;;;;;1.6;1.6;;;;;;;5.5;100.0;100810;;;;
2022/12/30 01:16:09;;;;;;;1.6;1.6;;;;;;;5.5;100.0;100820;;;;
2022/12/30 01:17:00;;;;;;;1.6;1.6;;;;;;;5.5;100.0;100820;;;;
2022/12/30 01:18:00;;;;;;;1.6;1.6;;;;;;;5.4;100.0;100820;;;;
2022/12/30 01:19:00;;;;;;;1.6;1.6;;;;;;;5.4;100.0;100820;;;;
2022/12/30 01:20:00;;;;;;;1.6;1.6;;;;;;;5.4;100.0;100820;;;;
2022/12/30 01:21:00;;;;;;;1.6;1.6;;;;;;;5.4;100.0;100820;;;;
2022/12/30 01:22:00;;;;;;;1.6;1.6;;;;;;;5.4;100.0;100820;;;;
2022/12/30 01:23:00;;;;;;;1.6;1.6;;;;;;;5.4;100.0;100820;;;;
2022/12/30 01:24:00;;;;;;;1.6;1.6;;;;;;;5.4;100.0;100820;;;;
2022/12/30 01:25:00;;;;;;;1.6;1.6;;;;;;;5.4;100.0;100820;;;;
2022/12/30 01:26:01;;;;;;;1.6;1.6;;;;;;;5.4;100.0;100810;;;;
2022/12/30 01:27:00;;;;;;;1.6;1.6;;;;;;;5.4;100.0;100810;;;;
2022/12/30 01:28:00;;;;;;;1.6;1.6;;;;;;;5.4;100.0;100810;;;;
2022/12/30 01:29:00;;;;;;;1.8;1.8;;;;;;;5.4;100.0;100810;;;;
2022/12/30 01:30:00;;;;;;;1.8;1.8;;;;;;;5.4;100.0;100820;;;;
2022/12/30 01:31:03;;;;;;;1.8;1.8;;;;;;;5.4;100.0;100820;;;;
2022/12/30 01:32:01;;;;;;;1.8;1.8;;;;;;;5.4;100.0;100820;;;;
2022/12/30 01:33:00;;;;;;;1.8;1.8;;;;;;;5.4;100.0;100820;;;;
2022/12/30 01:34:00;;;;;;;1.8;1.8;;;;;;;5.4;100.0;100820;;;;
2022/12/30 01:35:00;;;;;;;1.8;1.8;;;;;;;5.4;100.0;100820;;;;
2022/12/30 01:36:00;;;;;;;1.8;1.8;;;;;;;5.4;100.0;100820;;;;
2022/12/30 01:37:00;;;;;;;1.8;1.8;;;;;;;5.4;100.0;100820;;;;
2022/12/30 01:38:00;;;;;;;1.8;1.8;;;;;;;5.5;100.0;100820;;;;
2022/12/30 01:39:00;;;;;;;1.8;1.8;;;;;;;5.5;100.0;100820;;;;
2022/12/30 01:40:00;;;;;;;1.8;1.8;;;;;;;5.4;100.0;100820;;;;
2022/12/30 01:41:00;;;;;;;1.8;1.8;;;;;;;5.4;100.0;100820;;;;
2022/12/30 01:42:01;;;;;;;1.8;1.8;;;;;;;5.4;100.0;100830;;;;
2022/12/30 01:43:00;;;;;;;1.8;1.8;;;;;;;5.4;100.0;100830;;;;
2022/12/30 01:44:00;;;;;;;1.8;1.8;;;;;;;5.3;100.0;100840;;;;
2022/12/30 01:45:10;;;;;;;1.8;1.8;;;;;;;5.3;100.0;100840;;;;
2022/12/30 01:46:02;;;;;;;1.8;1.8;;;;;;;5.3;100.0;100840;;;;
2022/12/30 01:47:00;;;;;;;1.8;1.8;;;;;;;5.3;100.0;100840;;;;
2022/12/30 01:48:10;;;;;;;1.8;1.8;;;;;;;5.4;100.0;100840;;;;
2022/12/30 01:49:00;;;;;;;1.6;1.6;;;;;;;5.4;100.0;100840;;;;
2022/12/30 01:50:04;;;;;;;1.6;1.6;;;;;;;5.5;100.0;100840;;;;
2022/12/30 01:51:01;;;;;;;1.6;1.6;;;;;;;5.5;100.0;100840;;;;
2022/12/30 01:52:00;;;;;;;1.6;1.6;;;;;;;5.3;100.0;100840;;;;
2022/12/30 01:53:10;;;;;;;1.6;1.6;;;;;;;5.3;100.0;100840;;;;
2022/12/30 01:54:01;;;;;;;1.6;1.6;;;;;;;5.3;100.0;100850;;;;
2022/12/30 01:55:02;;;;;;;1.6;1.6;;;;;;;5.3;100.0;100850;;;;
2022/12/30 01:56:05;;;;;;;1.6;1.6;;;;;;;5.3;100.0;100860;;;;
2022/12/30 01:57:00;;;;;;;1.6;1.6;;;;;;;5.3;100.0;100860;;;;
2022/12/30 01:58:01;;;;;;;1.6;1.6;;;;;;;5.4;100.0;100860;;;;
2022/12/30 01:59:01;;;;;;;1.6;1.6;;;;;;;5.4;100.0;100860;;;;
2022/12/30 02:00:02;;;;;;;1.6;1.6;;;;;;;5.4;100.0;100860;;;;
2022/12/30 02:01:00;;;;;;;1.6;1.6;;;;;;;5.4;100.0;100860;;;;
2022/12/30 02:02:01;;;;;;;1.6;1.6;;;;;;;5.3;100.0;100860;;;;
2022/12/30 02:03:01;;;;;;;1.6;1.6;;;;;;;5.3;100.0;100860;;;;
2022/12/30 02:04:01;;;;;;;1.6;1.6;;;;;;;5.3;100.0;100870;;;;
2022/12/30 02:05:01;;;;;;;1.6;1.6;;;;;;;5.3;100.0;100870;;;;
2022/12/30 02:06:01;;;;;;;1.6;1.6;;;;;;;5.3;100.0;100870;;;;
2022/12/30 02:07:04;;;;;;;1.6;1.6;;;;;;;5.3;100.0;100870;;;;
2022/12/30 02:08:04;;;;;;;1.6;1.6;;;;;;;5.2;100.0;100870;;;;
2022/12/30 02:09:00;;;;;;;1.7;1.7;;;;;;;5.2;100.0;100870;;;;
2022/12/30 02:10:00;;;;;;;1.7;1.7;;;;;;;5.2;100.0;100870;;;;
2022/12/30 02:11:01;;;;;;;1.7;1.7;;;;;;;5.2;100.0;100870;;;;
2022/12/30 02:12:00;;;;;;;1.7;1.7;;;;;;;5.2;100.0;100860;;;;
2022/12/30 02:13:00;;;;;;;1.7;1.7;;;;;;;5.2;100.0;100860;;;;
2022/12/30 02:14:07;;;;;;;1.7;1.7;;;;;;;5.2;100.0;100860;;;;
2022/12/30 02:15:01;;;;;;;1.7;1.7;;;;;;;5.2;100.0;100860;;;;
2022/12/30 02:16:10;;;;;;;1.7;1.7;;;;;;;5.2;100.0;100860;;;;
2022/12/30 02:17:10;;;;;;;1.7;1.7;;;;;;;5.2;100.0;100860;;;;
2022/12/30 02:18:00;;;;;;;1.7;1.7;;;;;;;5.2;100.0;100850;;;;
2022/12/30 02:19:08;;;;;;;1.7;1.7;;;;;;;5.2;100.0;100850;;;;
2022/12/30 02:20:10;;;;;;;1.7;1.7;;;;;;;5.2;100.0;100850;;;;
2022/12/30 02:21:04;;;;;;;1.7;1.7;;;;;;;5.2;100.0;100850;;;;
2022/12/30 02:22:03;;;;;;;1.7;1.7;;;;;;;5.3;100.0;100840;;;;
2022/12/30 02:23:08;;;;;;;1.7;1.7;;;;;;;5.3;100.0;100840;;;;
2022/12/30 02:24:07;;;;;;;1.7;1.7;;;;;;;5.2;100.0;100840;;;;
2022/12/30 02:25:01;;;;;;;1.7;1.7;;;;;;;5.2;100.0;100840;;;;
2022/12/30 02:26:00;;;;;;;1.7;1.7;;;;;;;5.2;100.0;100840;;;;
2022/12/30 02:27:10;;;;;;;1.7;1.7;;;;;;;5.2;100.0;100840;;;;
2022/12/30 02:28:01;;;;;;;1.7;1.7;;;;;;;5.2;100.0;100840;;;;
2022/12/30 02:29:09;;;;;;;1.8;1.8;;;;;;;5.2;100.0;100840;;;;
2022/12/30 02:30:10;;;;;;;1.8;1.8;;;;;;;5.1;100.0;100840;;;;
2022/12/30 02:31:10;;;;;;;1.8;1.8;;;;;;;5.1;100.0;100840;;;;
2022/12/30 02:32:10;;;;;;;1.8;1.8;;;;;;;5.2;100.0;100830;;;;
2022/12/30 02:33:10;;;;;;;1.8;1.8;;;;;;;5.2;100.0;100830;;;;
2022/12/30 02:34:01;;;;;;;1.8;1.8;;;;;;;5.2;100.0;100830;;;;
2022/12/30 02:35:10;;;;;;;1.8;1.8;;;;;;;5.2;100.0;100830;;;;
2022/12/30 02:36:07;;;;;;;1.8;1.8;;;;;;;5.3;100.0;100820;;;;
2022/12/30 02:37:00;;;;;;;1.8;1.8;;;;;;;5.3;100.0;100820;;;;
2022/12/30 02:38:10;;;;;;;1.8;1.8;;;;;;;5.3;100.0;100820;;;;
2022/12/30 02:39:01;;;;;;;1.8;1.8;;;;;;;5.3;100.0;100820;;;;
2022/12/30 02:40:00;;;;;;;1.8;1.8;;;;;;;5.2;100.0;100820;;;;
2022/12/30 02:45:04;;;;;;;1.8;1.8;;;;;;;5.1;100.0;100820;;;;
2022/12/30 02:46:04;;;;;;;1.8;1.8;;;;;;;5.2;100.0;100820;;;;
2022/12/30 02:47:02;;;;;;;1.8;1.8;;;;;;;5.2;100.0;100820;;;;
2022/12/30 02:48:03;;;;;;;1.8;1.8;;;;;;;5.2;100.0;100830;;;;
2022/12/30 02:49:01;;;;;;;1.7;1.7;;;;;;;5.2;100.0;100830;;;;
2022/12/30 02:52:16;;;;;;;1.7;1.7;;;;;;;5.1;100.0;100820;;;;
2022/12/30 02:53:01;;;;;;;1.7;1.7;;;;;;;5.1;100.0;100820;;;;
2022/12/30 02:54:00;;;;;;;1.7;1.7;;;;;;;5.2;100.0;100820;;;;
2022/12/30 02:55:00;;;;;;;1.7;1.7;;;;;;;5.2;100.0;100820;;;;
2022/12/30 02:56:00;;;;;;;1.7;1.7;;;;;;;5.1;100.0;100820;;;;
2022/12/30 02:57:00;;;;;;;1.7;1.7;;;;;;;5.1;100.0;100820;;;;
2022/12/30 02:58:00;;;;;;;1.7;1.7;;;;;;;5.1;100.0;100820;;;;
2022/12/30 03:04:10;;;;;;;1.7;1.7;;;;;;;4.9;100.0;100800;;;;
2022/12/30 03:05:03;;;;;;;1.7;1.7;;;;;;;4.9;100.0;100800;;;;
2022/12/30 03:06:08;;;;;;;1.7;1.7;;;;;;;4.8;100.0;100790;;;;
2022/12/30 03:07:10;;;;;;;1.7;1.7;;;;;;;4.8;100.0;100790;;;;
2022/12/30 03:08:10;;;;;;;1.7;1.7;;;;;;;4.8;100.0;100790;;;;
2022/12/30 03:09:01;;;;;;;1.9;1.9;;;;;;;4.8;100.0;100790;;;;
2022/12/30 03:11:13;;;;;;;1.9;1.9;;;;;;;4.7;100.0;100790;;;;
2022/12/30 03:12:10;;;;;;;1.9;1.9;;;;;;;4.7;100.0;100800;;;;
2022/12/30 03:13:05;;;;;;;1.9;1.9;;;;;;;4.7;100.0;100800;;;;
2022/12/30 03:14:10;;;;;;;1.9;1.9;;;;;;;4.7;100.0;100790;;;;
2022/12/30 03:15:02;;;;;;;1.9;1.9;;;;;;;4.7;100.0;100790;;;;
2022/12/30 03:16:05;;;;;;;1.9;1.9;;;;;;;4.6;100.0;100790;;;;
2022/12/30 03:17:02;;;;;;;1.9;1.9;;;;;;;4.6;100.0;100790;;;;
2022/12/30 03:18:02;;;;;;;1.9;1.9;;;;;;;4.6;100.0;100790;;;;
2022/12/30 03:19:02;;;;;;;1.9;1.9;;;;;;;4.6;100.0;100790;;;;
2022/12/30 03:20:02;;;;;;;1.9;1.9;;;;;;;4.5;100.0;100790;;;;
2022/12/30 03:21:02;;;;;;;1.9;1.9;;;;;;;4.5;100.0;100790;;;;
2022/12/30 03:22:00;;;;;;;1.9;1.9;;;;;;;4.5;100.0;100790;;;;
2022/12/30 03:27:03;;;;;;;1.9;1.9;;;;;;;4.5;100.0;100790;;;;
2022/12/30 03:28:02;;;;;;;1.9;1.9;;;;;;;4.5;100.0;100790;;;;
2022/12/30 03:29:01;;;;;;;1.7;1.7;;;;;;;4.5;100.0;100790;;;;
2022/12/30 03:30:03;;;;;;;1.7;1.7;;;;;;;4.5;100.0;100790;;;;
2022/12/30 03:31:02;;;;;;;1.7;1.7;;;;;;;4.5;100.0;100790;;;;
2022/12/30 03:32:00;;;;;;;1.7;1.7;;;;;;;4.6;100.0;100790;;;;
2022/12/30 03:33:00;;;;;;;1.7;1.7;;;;;;;4.6;100.0;100790;;;;
2022/12/30 03:34:00;;;;;;;1.7;1.7;;;;;;;4.5;100.0;100790;;;;
2022/12/30 03:35:00;;;;;;;1.7;1.7;;;;;;;4.5;100.0;100790;;;;
2022/12/30 03:36:08;;;;;;;1.7;1.7;;;;;;;4.5;100.0;100790;;;;
2022/12/30 03:37:06;;;;;;;1.7;1.7;;;;;;;4.5;100.0;100790;;;;
2022/12/30 03:38:01;;;;;;;1.7;1.7;;;;;;;4.5;100.0;100790;;;;
2022/12/30 03:39:03;;;;;;;1.7;1.7;;;;;;;4.5;100.0;100790;;;;
2022/12/30 03:40:03;;;;;;;1.7;1.7;;;;;;;4.5;100.0;100790;;;;
2022/12/30 03:41:01;;;;;;;1.7;1.7;;;;;;;4.5;100.0;100790;;;;
2022/12/30 03:42:02;;;;;;;1.7;1.7;;;;;;;4.5;100.0;100790;;;;
2022/12/30 03:43:01;;;;;;;1.7;1.7;;;;;;;4.5;100.0;100790;;;;
2022/12/30 03:44:00;;;;;;;1.7;1.7;;;;;;;4.5;100.0;100790;;;;
2022/12/30 03:45:01;;;;;;;1.7;1.7;;;;;;;4.5;100.0;100790;;;;
2022/12/30 03:46:00;;;;;;;1.7;1.7;;;;;;;4.5;100.0;100790;;;;
2022/12/30 03:47:00;;;;;;;1.7;1.7;;;;;;;4.5;100.0;100790;;;;
2022/12/30 03:48:00;;;;;;;1.7;1.7;;;;;;;4.4;100.0;100800;;;;
2022/12/30 03:49:00;;;;;;;1.8;1.8;;;;;;;4.4;100.0;100800;;;;
2022/12/30 03:50:00;;;;;;;1.8;1.8;;;;;;;4.5;100.0;100800;;;;
2022/12/30 03:51:00;;;;;;;1.8;1.8;;;;;;;4.5;100.0;100800;;;;
2022/12/30 03:52:05;;;;;;;1.8;1.8;;;;;;;4.4;100.0;100800;;;;
2022/12/30 03:53:00;;;;;;;1.8;1.8;;;;;;;4.4;100.0;100800;;;;
2022/12/30 03:54:00;;;;;;;1.8;1.8;;;;;;;4.4;100.0;100810;;;;
2022/12/30 03:55:00;;;;;;;1.8;1.8;;;;;;;4.4;100.0;100810;;;;
2022/12/30 03:56:00;;;;;;;1.8;1.8;;;;;;;4.4;100.0;100800;;;;
2022/12/30 03:57:00;;;;;;;1.8;1.8;;;;;;;4.4;100.0;100800;;;;
2022/12/30 03:58:00;;;;;;;1.8;1.8;;;;;;;4.3;100.0;100800;;;;
2022/12/30 03:59:00;;;;;;;1.8;1.8;;;;;;;4.3;100.0;100800;;;;
2022/12/30 04:00:00;;;;;;;1.8;1.8;;;;;;;4.4;100.0;100800;;;;
2022/12/30 04:01:00;;;;;;;1.8;1.8;;;;;;;4.4;100.0;100800;;;;
2022/12/30 04:02:00;;;;;;;1.8;1.8;;;;;;;4.4;100.0;100800;;;;
2022/12/30 04:03:00;;;;;;;1.8;1.8;;;;;;;4.4;100.0;100800;;;;
2022/12/30 04:04:00;;;;;;;1.8;1.8;;;;;;;4.4;100.0;100790;;;;
2022/12/30 04:05:00;;;;;;;1.8;1.8;;;;;;;4.4;100.0;100790;;;;
2022/12/30 04:06:00;;;;;;;1.8;1.8;;;;;;;4.3;100.0;100790;;;;
2022/12/30 04:07:00;;;;;;;1.8;1.8;;;;;;;4.3;100.0;100790;;;;
2022/12/30 04:08:00;;;;;;;1.8;1.8;;;;;;;4.3;100.0;100800;;;;
2022/12/30 04:09:00;;;;;;;1.7;1.7;;;;;;;4.3;100.0;100800;;;;
2022/12/30 04:10:00;;;;;;;1.7;1.7;;;;;;;4.3;100.0;100800;;;;
2022/12/30 04:11:00;;;;;;;1.7;1.7;;;;;;;4.3;100.0;100800;;;;
2022/12/30 04:12:00;;;;;;;1.7;1.7;;;;;;;4.2;100.0;100800;;;;
2022/12/30 04:13:00;;;;;;;1.7;1.7;;;;;;;4.2;100.0;100800;;;;
2022/12/30 04:14:00;;;;;;;1.7;1.7;;;;;;;4.3;100.0;100800;;;;
2022/12/30 04:15:00;;;;;;;1.7;1.7;;;;;;;4.3;100.0;100800;;;;
2022/12/30 04:16:00;;;;;;;1.7;1.7;;;;;;;4.2;100.0;100800;;;;
2022/12/30 04:17:00;;;;;;;1.7;1.7;;;;;;;4.2;100.0;100800;;;;
2022/12/30 04:18:00;;;;;;;1.7;1.7;;;;;;;4.2;100.0;100800;;;;
2022/12/30 04:19:00;;;;;;;1.7;1.7;;;;;;;4.2;100.0;100800;;;;
2022/12/30 04:20:00;;;;;;;1.7;1.7;;;;;;;4.2;100.0;100800;;;;
2022/12/30 04:21:00;;;;;;;1.7;1.7;;;;;;;4.2;100.0;100800;;;;
2022/12/30 04:22:00;;;;;;;1.7;1.7;;;;;;;4.2;100.0;100800;;;;
2022/12/30 04:23:00;;;;;;;1.7;1.7;;;;;;;4.2;100.0;100800;;;;
2022/12/30 04:24:00;;;;;;;1.7;1.7;;;;;;;4.2;100.0;100810;;;;
2022/12/30 04:25:00;;;;;;;1.7;1.7;;;;;;;4.2;100.0;100810;;;;
2022/12/30 04:26:00;;;;;;;1.7;1.7;;;;;;;4.2;100.0;100810;;;;
2022/12/30 04:27:00;;;;;;;1.7;1.7;;;;;;;4.2;100.0;100810;;;;
2022/12/30 04:28:00;;;;;;;1.7;1.7;;;;;;;4.2;100.0;100810;;;;
2022/12/30 04:29:00;;;;;;;1.8;1.8;;;;;;;4.2;100.0;100810;;;;
2022/12/30 04:30:01;;;;;;;1.8;1.8;;;;;;;4.1;100.0;100810;;;;
2022/12/30 04:31:00;;;;;;;1.8;1.8;;;;;;;4.1;100.0;100810;;;;
2022/12/30 04:32:00;;;;;;;1.8;1.8;;;;;;;4.1;100.0;100810;;;;
2022/12/30 04:33:00;;;;;;;1.8;1.8;;;;;;;4.1;100.0;100810;;;;
2022/12/30 04:34:08;;;;;;;1.8;1.8;;;;;;;4.1;100.0;100810;;;;
2022/12/30 04:35:00;;;;;;;1.8;1.8;;;;;;;4.1;100.0;100810;;;;
2022/12/30 04:36:00;;;;;;;1.8;1.8;;;;;;;4.0;100.0;100810;;;;
2022/12/30 04:37:00;;;;;;;1.8;1.8;;;;;;;4.0;100.0;100810;;;;
2022/12/30 04:38:00;;;;;;;1.8;1.8;;;;;;;4.1;100.0;100810;;;;
2022/12/30 04:39:00;;;;;;;1.8;1.8;;;;;;;4.1;100.0;100810;;;;
2022/12/30 04:40:00;;;;;;;1.8;1.8;;;;;;;4.1;100.0;100800;;;;
2022/12/30 04:41:00;;;;;;;1.8;1.8;;;;;;;4.1;100.0;100800;;;;
2022/12/30 04:42:00;;;;;;;1.8;1.8;;;;;;;4.1;100.0;100800;;;;
2022/12/30 04:43:00;;;;;;;1.8;1.8;;;;;;;4.1;100.0;100800;;;;
2022/12/30 04:44:02;;;;;;;1.8;1.8;;;;;;;4.2;100.0;100800;;;;
2022/12/30 04:45:00;;;;;;;1.8;1.8;;;;;;;4.2;100.0;100800;;;;
2022/12/30 04:46:00;;;;;;;1.8;1.8;;;;;;;4.2;100.0;100800;;;;
2022/12/30 04:47:00;;;;;;;1.8;1.8;;;;;;;4.2;100.0;100800;;;;
2022/12/30 04:48:00;;;;;;;1.8;1.8;;;;;;;4.1;100.0;100800;;;;
2022/12/30 04:49:00;;;;;;;2.0;2.0;;;;;;;4.1;100.0;100800;;;;
2022/12/30 04:50:00;;;;;;;2.0;2.0;;;;;;;4.2;100.0;100800;;;;
2022/12/30 04:51:00;;;;;;;2.0;2.0;;;;;;;4.2;100.0;100800;;;;
2022/12/30 04:52:00;;;;;;;2.0;2.0;;;;;;;4.2;100.0;100800;;;;
2022/12/30 04:53:00;;;;;;;2.0;2.0;;;;;;;4.2;100.0;100800;;;;
2022/12/30 04:54:00;;;;;;;2.0;2.0;;;;;;;4.2;100.0;100800;;;;
2022/12/30 04:55:00;;;;;;;2.0;2.0;;;;;;;4.2;100.0;100800;;;;
2022/12/30 04:56:00;;;;;;;2.0;2.0;;;;;;;4.1;100.0;100800;;;;
2022/12/30 04:57:00;;;;;;;2.0;2.0;;;;;;;4.1;100.0;100800;;;;
2022/12/30 04:58:00;;;;;;;2.0;2.0;;;;;;;4.2;100.0;100800;;;;
2022/12/30 04:59:00;;;;;;;2.0;2.0;;;;;;;4.2;100.0;100800;;;;
2022/12/30 05:00:00;;;;;;;2.0;2.0;;;;;;;4.2;100.0;100790;;;;
2022/12/30 05:01:00;;;;;;;2.0;2.0;;;;;;;4.2;100.0;100790;;;;
2022/12/30 05:02:00;;;;;;;2.0;2.0;;;;;;;4.2;100.0;100790;;;;
2022/12/30 05:03:00;;;;;;;2.0;2.0;;;;;;;4.2;100.0;100790;;;;
2022/12/30 05:04:00;;;;;;;2.0;2.0;;;;;;;4.2;100.0;100790;;;;
2022/12/30 05:05:00;;;;;;;2.0;2.0;;;;;;;4.2;100.0;100790;;;;
2022/12/30 05:06:00;;;;;;;2.0;2.0;;;;;;;4.4;100.0;100800;;;;
2022/12/30 05:07:00;;;;;;;2.0;2.0;;;;;;;4.4;100.0;100800;;;;
2022/12/30 05:08:00;;;;;;;1.9;1.9;;;;;;;4.3;100.0;100800;;;;
2022/12/30 05:09:00;;;;;;;1.9;1.9;;;;;;;4.3;100.0;100800;;;;
2022/12/30 05:10:00;;;;;;;1.9;1.9;;;;;;;4.3;100.0;100800;;;;
2022/12/30 05:11:00;;;;;;;1.9;1.9;;;;;;;4.3;100.0;100800;;;;
2022/12/30 05:12:00;;;;;;;1.9;1.9;;;;;;;4.3;100.0;100800;;;;
2022/12/30 05:13:00;;;;;;;1.9;1.9;;;;;;;4.3;100.0;100800;;;;
2022/12/30 05:14:00;;;;;;;1.9;1.9;;;;;;;4.3;100.0;100800;;;;
2022/12/30 05:15:00;;;;;;;1.9;1.9;;;;;;;4.3;100.0;100800;;;;
2022/12/30 05:16:00;;;;;;;1.9;1.9;;;;;;;4.2;100.0;100800;;;;
2022/12/30 05:17:00;;;;;;;1.9;1.9;;;;;;;4.2;100.0;100800;;;;
2022/12/30 05:18:00;;;;;;;1.9;1.9;;;;;;;4.3;100.0;100800;;;;
2022/12/30 05:19:00;;;;;;;1.9;1.9;;;;;;;4.3;100.0;100800;;;;
2022/12/30 05:20:00;;;;;;;1.9;1.9;;;;;;;4.3;100.0;100800;;;;
2022/12/30 05:21:00;;;;;;;1.9;1.9;;;;;;;4.3;100.0;100800;;;;
2022/12/30 05:22:00;;;;;;;1.9;1.9;;;;;;;4.4;100.0;100800;;;;
2022/12/30 05:23:00;;;;;;;1.9;1.9;;;;;;;4.4;100.0;100800;;;;
2022/12/30 05:27:00;;;;;;;1.9;1.9;;;;;;;4.4;100.0;100790;;;;
2022/12/30 05:28:00;;;;;;;2.0;2.0;;;;;;;4.4;100.0;100790;;;;
2022/12/30 05:29:00;;;;;;;2.0;2.0;;;;;;;4.4;100.0;100790;;;;
2022/12/30 05:30:00;;;;;;;2.0;2.0;;;;;;;4.4;100.0;100790;;;;
2022/12/30 05:31:00;;;;;;;2.0;2.0;;;;;;;4.4;100.0;100780;;;;
2022/12/30 05:32:00;;;;;;;2.0;2.0;;;;;;;4.3;100.0;100790;;;;
2022/12/30 05:33:00;;;;;;;2.0;2.0;;;;;;;4.3;100.0;100790;;;;
2022/12/30 05:34:08;;;;;;;2.0;2.0;;;;;;;4.3;100.0;100790;;;;
2022/12/30 05:35:00;;;;;;;2.0;2.0;;;;;;;4.3;100.0;100790;;;;
2022/12/30 05:36:00;;;;;;;2.0;2.0;;;;;;;4.3;100.0;100800;;;;
2022/12/30 05:37:00;;;;;;;2.0;2.0;;;;;;;4.3;100.0;100800;;;;
2022/12/30 05:38:00;;;;;;;2.0;2.0;;;;;;;4.3;100.0;100800;;;;
2022/12/30 05:39:00;;;;;;;2.0;2.0;;;;;;;4.3;100.0;100800;;;;
2022/12/30 05:40:00;;;;;;;2.0;2.0;;;;;;;4.3;100.0;100800;;;;
2022/12/30 05:41:09;;;;;;;2.0;2.0;;;;;;;4.3;100.0;100800;;;;
2022/12/30 05:42:00;;;;;;;2.0;2.0;;;;;;;4.3;100.0;100790;;;;
2022/12/30 05:43:00;;;;;;;2.0;2.0;;;;;;;4.3;100.0;100790;;;;
2022/12/30 05:44:00;;;;;;;2.0;2.0;;;;;;;4.3;100.0;100780;;;;
2022/12/30 05:45:00;;;;;;;2.0;2.0;;;;;;;4.3;100.0;100780;;;;
2022/12/30 05:46:00;;;;;;;2.0;2.0;;;;;;;4.3;100.0;100790;;;;
2022/12/30 05:47:00;;;;;;;2.0;2.0;;;;;;;4.3;100.0;100790;;;;
2022/12/30 05:48:00;;;;;;;2.0;2.0;;;;;;;4.3;100.0;100780;;;;
2022/12/30 05:49:00;;;;;;;2.0;2.0;;;;;;;4.3;100.0;100780;;;;
2022/12/30 05:50:00;;;;;;;2.0;2.0;;;;;;;4.4;100.0;100780;;;;
2022/12/30 05:51:00;;;;;;;2.0;2.0;;;;;;;4.4;100.0;100780;;;;
2022/12/30 05:52:00;;;;;;;2.0;2.0;;;;;;;4.4;100.0;100780;;;;
2022/12/30 05:53:00;;;;;;;2.0;2.0;;;;;;;4.4;100.0;100780;;;;
2022/12/30 05:54:00;;;;;;;2.0;2.0;;;;;;;4.2;100.0;100780;;;;
2022/12/30 05:55:00;;;;;;;2.0;2.0;;;;;;;4.2;100.0;100780;;;;
2022/12/30 05:56:00;;;;;;;2.0;2.0;;;;;;;4.2;100.0;100780;;;;
2022/12/30 05:57:00;;;;;;;2.0;2.0;;;;;;;4.2;100.0;100780;;;;
2022/12/30 05:58:00;;;;;;;2.0;2.0;;;;;;;4.2;100.0;100790;;;;
2022/12/30 05:59:00;;;;;;;2.0;2.0;;;;;;;4.2;100.0;100790;;;;
2022/12/30 06:00:00;;;;;;;2.0;2.0;;;;;;;4.2;100.0;100790;;;;
2022/12/30 06:01:00;;;;;;;2.0;2.0;;;;;;;4.2;100.0;100790;;;;
2022/12/30 06:02:00;;;;;;;2.0;2.0;;;;;;;4.2;100.0;100790;;;;
2022/12/30 06:03:00;;;;;;;2.0;2.0;;;;;;;4.2;100.0;100790;;;;
2022/12/30 06:04:00;;;;;;;2.0;2.0;;;;;;;4.3;100.0;100780;;;;
2022/12/30 06:05:00;;;;;;;2.0;2.0;;;;;;;4.3;100.0;100780;;;;
2022/12/30 06:06:01;;;;;;;2.0;2.0;;;;;;;4.2;100.0;100780;;;;
2022/12/30 06:07:00;;;;;;;2.0;2.0;;;;;;;4.2;100.0;100780;;;;
2022/12/30 06:08:00;;;;;;;2.0;2.0;;;;;;;4.3;100.0;100780;;;;
2022/12/30 06:09:00;;;;;;;2.0;2.0;;;;;;;4.3;100.0;100780;;;;
2022/12/30 06:10:00;;;;;;;2.0;2.0;;;;;;;4.3;100.0;100770;;;;
2022/12/30 06:11:00;;;;;;;2.0;2.0;;;;;;;4.3;100.0;100770;;;;
2022/12/30 06:12:00;;;;;;;2.0;2.0;;;;;;;4.2;100.0;100770;;;;
2022/12/30 06:13:00;;;;;;;2.0;2.0;;;;;;;4.2;100.0;100770;;;;
2022/12/30 06:14:00;;;;;;;2.0;2.0;;;;;;;4.2;100.0;100770;;;;
2022/12/30 06:15:00;;;;;;;2.0;2.0;;;;;;;4.2;100.0;100770;;;;
2022/12/30 06:16:00;;;;;;;2.0;2.0;;;;;;;4.3;100.0;100770;;;;
2022/12/30 06:17:00;;;;;;;2.0;2.0;;;;;;;4.3;100.0;100770;;;;
2022/12/30 06:18:00;;;;;;;2.0;2.0;;;;;;;4.2;100.0;100770;;;;
2022/12/30 06:19:00;;;;;;;2.0;2.0;;;;;;;4.2;100.0;100770;;;;
2022/12/30 06:20:00;;;;;;;2.0;2.0;;;;;;;4.2;100.0;100760;;;;
2022/12/30 06:21:00;;;;;;;2.0;2.0;;;;;;;4.2;100.0;100760;;;;
2022/12/30 06:22:00;;;;;;;2.0;2.0;;;;;;;4.1;100.0;100760;;;;
2022/12/30 06:23:00;;;;;;;2.0;2.0;;;;;;;4.1;100.0;100760;;;;
2022/12/30 06:24:00;;;;;;;2.0;2.0;;;;;;;4.1;100.0;100760;;;;
2022/12/30 06:25:00;;;;;;;2.0;2.0;;;;;;;4.1;100.0;100760;;;;
2022/12/30 06:26:00;;;;;;;2.0;2.0;;;;;;;4.2;100.0;100760;;;;
2022/12/30 06:27:00;;;;;;;2.0;2.0;;;;;;;4.2;100.0;100760;;;;
2022/12/30 06:28:00;;;;;;;1.9;1.9;;;;;;;4.2;100.0;100760;;;;
2022/12/30 06:29:00;;;;;;;1.9;1.9;;;;;;;4.2;100.0;100760;;;;
2022/12/30 06:30:00;;;;;;;1.9;1.9;;;;;;;4.3;100.0;100760;;;;
2022/12/30 06:31:00;;;;;;;1.9;1.9;;;;;;;4.3;100.0;100760;;;;
2022/12/30 06:32:00;;;;;;;1.9;1.9;;;;;;;4.2;100.0;100760;;;;
2022/12/30 06:33:01;;;;;;;1.9;1.9;;;;;;;4.2;100.0;100760;;;;
2022/12/30 06:34:00;;;;;;;1.9;1.9;;;;;;;4.1;100.0;100760;;;;
2022/12/30 06:35:00;;;;;;;1.9;1.9;;;;;;;4.1;100.0;100760;;;;
2022/12/30 06:36:00;;;;;;;1.9;1.9;;;;;;;4.2;100.0;100750;;;;
2022/12/30 06:37:00;;;;;;;1.9;1.9;;;;;;;4.2;100.0;100750;;;;
2022/12/30 06:38:00;;;;;;;1.9;1.9;;;;;;;4.2;100.0;100760;;;;
2022/12/30 06:39:00;;;;;;;1.9;1.9;;;;;;;4.2;100.0;100760;;;;
2022/12/30 06:40:00;;;;;;;1.9;1.9;;;;;;;4.3;100.0;100760;;;;
2022/12/30 06:41:00;;;;;;;1.9;1.9;;;;;;;4.3;100.0;100760;;;;
2022/12/30 06:42:00;;;;;;;1.9;1.9;;;;;;;4.2;100.0;100760;;;;
2022/12/30 06:43:00;;;;;;;1.9;1.9;;;;;;;4.2;100.0;100760;;;;
2022/12/30 06:44:00;;;;;;;1.9;1.9;;;;;;;4.3;100.0;100750;;;;
2022/12/30 06:45:00;;;;;;;1.9;1.9;;;;;;;4.3;100.0;100750;;;;
2022/12/30 06:46:00;;;;;;;1.9;1.9;;;;;;;4.2;100.0;100750;;;;
2022/12/30 06:47:00;;;;;;;1.9;1.9;;;;;;;4.2;100.0;100750;;;;
2022/12/30 06:48:00;;;;;;;2.0;2.0;;;;;;;4.2;100.0;100750;;;;
2022/12/30 06:49:00;;;;;;;2.0;2.0;;;;;;;4.2;100.0;100750;;;;
2022/12/30 06:50:00;;;;;;;2.0;2.0;;;;;;;4.3;100.0;100750;;;;
2022/12/30 06:51:01;;;;;;;2.0;2.0;;;;;;;4.3;100.0;100750;;;;
2022/12/30 06:52:00;;;;;;;2.0;2.0;;;;;;;4.2;100.0;100750;;;;
2022/12/30 06:53:00;;;;;;;2.0;2.0;;;;;;;4.2;100.0;100750;;;;
2022/12/30 06:54:00;;;;;;;2.0;2.0;;;;;;;4.3;100.0;100740;;;;
2022/12/30 06:55:00;;;;;;;2.0;2.0;;;;;;;4.3;100.0;100740;;;;
2022/12/30 06:56:00;;;;;;;2.0;2.0;;;;;;;4.2;100.0;100730;;;;
2022/12/30 06:57:00;;;;;;;2.0;2.0;;;;;;;4.2;100.0;100730;;;;
2022/12/30 06:58:00;;;;;;;2.0;2.0;;;;;;;4.2;100.0;100730;;;;
2022/12/30 06:59:00;;;;;;;2.0;2.0;;;;;;;4.2;100.0;100730;;;;
2022/12/30 07:00:00;;;;;;;2.0;2.0;;;;;;;4.2;100.0;100720;;;;
2022/12/30 07:01:00;;;;;;;2.0;2.0;;;;;;;4.2;100.0;100720;;;;
2022/12/30 07:02:00;;;;;;;2.0;2.0;;;;;;;4.2;100.0;100720;;;;
2022/12/30 07:03:00;;;;;;;2.0;2.0;;;;;;;4.2;100.0;100720;;;;
2022/12/30 07:04:00;;;;;;;2.0;2.0;;;;;;;4.2;100.0;100710;;;;
2022/12/30 07:05:00;;;;;;;2.0;2.0;;;;;;;4.2;100.0;100710;;;;
2022/12/30 07:06:00;;;;;;;2.0;2.0;;;;;;;4.2;100.0;100700;;;;
2022/12/30 07:07:00;;;;;;;2.0;2.0;;;;;;;4.2;100.0;100700;;;;
2022/12/30 07:08:00;;;;;;;1.9;1.9;;;;;;;4.2;100.0;100700;;;;
2022/12/30 07:09:00;;;;;;;1.9;1.9;;;;;;;4.2;100.0;100700;;;;
2022/12/30 07:10:00;;;;;;;1.9;1.9;;;;;;;4.2;100.0;100700;;;;
2022/12/30 07:11:00;;;;;;;1.9;1.9;;;;;;;4.2;100.0;100700;;;;
2022/12/30 07:12:00;;;;;;;1.9;1.9;;;;;;;4.2;100.0;100690;;;;
2022/12/30 07:13:00;;;;;;;1.9;1.9;;;;;;;4.2;100.0;100690;;;;
2022/12/30 07:14:00;;;;;;;1.9;1.9;;;;;;;4.2;100.0;100690;;;;
2022/12/30 07:15:00;;;;;;;1.9;1.9;;;;;;;4.2;100.0;100690;;;;
2022/12/30 07:16:00;;;;;;;1.9;1.9;;;;;;;4.2;100.0;100680;;;;
2022/12/30 07:17:00;;;;;;;1.9;1.9;;;;;;;4.2;100.0;100680;;;;
2022/12/30 07:18:00;;;;;;;1.9;1.9;;;;;;;4.2;100.0;100680;;;;
2022/12/30 07:19:00;;;;;;;1.9;1.9;;;;;;;4.2;100.0;100680;;;;